sensor_id;sensor_type;location;lat;lon;timestamp;pressure;altitude;pressure_sealevel;temperature;humidity
63556;BME280;49700;48.072;7.800;2022-07-21T00:01:49;99889.34;;;20.75;83.19
63556;BME280;49700;48.072;7.800;2022-07-21T00:04:15;99894.22;;;20.80;83.03
63556;BME280;49700;48.072;7.800;2022-07-21T00:06:42;99892.38;;;20.80;82.93
63556;BME280;49700;48.072;7.800;2022-07-21T00:09:08;99889.34;;;20.75;82.87
63556;BME280;49700;48.072;7.800;2022-07-21T00:11:34;99894.69;;;20.75;83.06
63556;BME280;49700;48.072;7.800;2022-07-21T00:14:03;99892.00;;;20.75;82.76
63556;BME280;49700;48.072;7.800;2022-07-21T00:16:37;99886.16;;;20.71;82.87
63556;BME280;49700;48.072;7.800;2022-07-21T00:19:04;99886.94;;;20.64;83.06
63556;BME280;49700;48.072;7.800;2022-07-21T00:21:30;99892.88;;;20.58;83.15
63556;BME280;49700;48.072;7.800;2022-07-21T00:23:58;99896.31;;;20.50;83.40
63556;BME280;49700;48.072;7.800;2022-07-21T00:26:23;99898.81;;;20.51;83.55
63556;BME280;49700;48.072;7.800;2022-07-21T00:28:49;99899.63;;;20.52;83.20
63556;BME280;49700;48.072;7.800;2022-07-21T00:31:17;99892.09;;;20.47;83.43
63556;BME280;49700;48.072;7.800;2022-07-21T00:33:45;99894.41;;;20.42;84.09
63556;BME280;49700;48.072;7.800;2022-07-21T00:36:11;99884.63;;;20.33;84.34
63556;BME280;49700;48.072;7.800;2022-07-21T00:38:40;99882.13;;;20.31;84.39
63556;BME280;49700;48.072;7.800;2022-07-21T00:41:07;99881.44;;;20.29;84.45
63556;BME280;49700;48.072;7.800;2022-07-21T00:43:33;99883.41;;;20.27;84.45
63556;BME280;49700;48.072;7.800;2022-07-21T00:46:07;99885.50;;;20.33;84.35
63556;BME280;49700;48.072;7.800;2022-07-21T00:48:35;99890.53;;;20.37;84.13
63556;BME280;49700;48.072;7.800;2022-07-21T00:51:01;99891.03;;;20.40;83.93
63556;BME280;49700;48.072;7.800;2022-07-21T00:53:30;99892.44;;;20.44;83.89
63556;BME280;49700;48.072;7.800;2022-07-21T00:55:59;99893.09;;;20.46;83.96
63556;BME280;49700;48.072;7.800;2022-07-21T00:58:25;99891.41;;;20.45;84.03
63556;BME280;49700;48.072;7.800;2022-07-21T01:00:51;99889.91;;;20.43;84.99
63556;BME280;49700;48.072;7.800;2022-07-21T01:03:19;99896.50;;;20.39;85.03
63556;BME280;49700;48.072;7.800;2022-07-21T01:05:44;99902.16;;;20.36;85.25
63556;BME280;49700;48.072;7.800;2022-07-21T01:08:10;99900.34;;;20.36;85.28
63556;BME280;49700;48.072;7.800;2022-07-21T01:10:39;99894.84;;;20.38;85.13
63556;BME280;49700;48.072;7.800;2022-07-21T01:13:12;99894.53;;;20.41;85.22
63556;BME280;49700;48.072;7.800;2022-07-21T01:15:40;99889.75;;;20.44;85.03
63556;BME280;49700;48.072;7.800;2022-07-21T01:18:05;99896.06;;;20.43;85.14
63556;BME280;49700;48.072;7.800;2022-07-21T01:20:33;99890.22;;;20.40;85.09
63556;BME280;49700;48.072;7.800;2022-07-21T01:23:03;99893.31;;;20.35;85.25
63556;BME280;49700;48.072;7.800;2022-07-21T01:25:28;99891.97;;;20.31;85.28
63556;BME280;49700;48.072;7.800;2022-07-21T01:27:54;99895.47;;;20.31;85.48
63556;BME280;49700;48.072;7.800;2022-07-21T01:30:19;99892.94;;;20.30;85.23
63556;BME280;49700;48.072;7.800;2022-07-21T01:32:45;99886.78;;;20.29;85.60
63556;BME280;49700;48.072;7.800;2022-07-21T01:35:15;99882.28;;;20.30;85.79
63556;BME280;49700;48.072;7.800;2022-07-21T01:37:44;99888.31;;;20.32;85.52
63556;BME280;49700;48.072;7.800;2022-07-21T01:40:11;99886.47;;;20.32;85.48
63556;BME280;49700;48.072;7.800;2022-07-21T01:42:55;99891.97;;;20.31;85.13
63556;BME280;49700;48.072;7.800;2022-07-21T01:45:23;99888.63;;;20.29;85.22
63556;BME280;49700;48.072;7.800;2022-07-21T01:47:49;99885.25;;;20.27;85.15
63556;BME280;49700;48.072;7.800;2022-07-21T01:50:17;99885.44;;;20.25;84.91
63556;BME280;49700;48.072;7.800;2022-07-21T01:52:44;99881.22;;;20.23;85.04
63556;BME280;49700;48.072;7.800;2022-07-21T01:55:12;99876.19;;;20.20;84.84
63556;BME280;49700;48.072;7.800;2022-07-21T01:57:42;99877.19;;;20.19;84.77
63556;BME280;49700;48.072;7.800;2022-07-21T02:00:08;99873.00;;;20.16;84.90
63556;BME280;49700;48.072;7.800;2022-07-21T02:02:43;99875.81;;;20.15;84.69
63556;BME280;49700;48.072;7.800;2022-07-21T02:05:09;99868.66;;;20.15;84.68
63556;BME280;49700;48.072;7.800;2022-07-21T02:07:35;99882.00;;;20.15;84.57
63556;BME280;49700;48.072;7.800;2022-07-21T02:10:03;99883.97;;;20.13;84.60
63556;BME280;49700;48.072;7.800;2022-07-21T02:12:33;99881.44;;;20.11;84.64
63556;BME280;49700;48.072;7.800;2022-07-21T02:14:58;99880.59;;;20.11;84.59
63556;BME280;49700;48.072;7.800;2022-07-21T02:17:24;99883.13;;;20.13;84.52
63556;BME280;49700;48.072;7.800;2022-07-21T02:19:49;99898.00;;;20.15;84.51
63556;BME280;49700;48.072;7.800;2022-07-21T02:22:15;99883.53;;;20.18;84.41
63556;BME280;49700;48.072;7.800;2022-07-21T02:24:40;99889.50;;;20.20;84.18
63556;BME280;49700;48.072;7.800;2022-07-21T02:27:06;99894.84;;;20.20;84.22
63556;BME280;49700;48.072;7.800;2022-07-21T02:29:31;99894.56;;;20.23;84.24
63556;BME280;49700;48.072;7.800;2022-07-21T02:32:00;99898.22;;;20.22;84.19
63556;BME280;49700;48.072;7.800;2022-07-21T02:34:28;99906.22;;;20.22;84.04
63556;BME280;49700;48.072;7.800;2022-07-21T02:36:53;99907.34;;;20.19;84.04
63556;BME280;49700;48.072;7.800;2022-07-21T02:39:19;99903.03;;;20.18;84.22
63556;BME280;49700;48.072;7.800;2022-07-21T02:41:45;99894.03;;;20.19;84.09
63556;BME280;49700;48.072;7.800;2022-07-21T02:44:20;99899.53;;;20.18;84.03
63556;BME280;49700;48.072;7.800;2022-07-21T02:46:48;99898.81;;;20.16;84.11
63556;BME280;49700;48.072;7.800;2022-07-21T02:49:17;99895.47;;;20.14;84.13
63556;BME280;49700;48.072;7.800;2022-07-21T02:51:47;99901.94;;;20.11;84.30
63556;BME280;49700;48.072;7.800;2022-07-21T02:54:13;99906.88;;;20.06;84.50
63556;BME280;49700;48.072;7.800;2022-07-21T02:56:38;99905.66;;;20.00;84.72
63556;BME280;49700;48.072;7.800;2022-07-21T02:59:04;99906.66;;;19.99;84.64
63556;BME280;49700;48.072;7.800;2022-07-21T03:01:38;99910.16;;;20.00;84.55
63556;BME280;49700;48.072;7.800;2022-07-21T03:04:03;99911.84;;;20.01;84.76
63556;BME280;49700;48.072;7.800;2022-07-21T03:06:29;99904.53;;;20.03;84.55
63556;BME280;49700;48.072;7.800;2022-07-21T03:08:54;99903.91;;;20.09;84.16
63556;BME280;49700;48.072;7.800;2022-07-21T03:11:20;99902.78;;;20.11;84.13
63556;BME280;49700;48.072;7.800;2022-07-21T03:13:45;99906.97;;;20.14;83.95
63556;BME280;49700;48.072;7.800;2022-07-21T03:16:13;99897.44;;;20.11;83.79
63556;BME280;49700;48.072;7.800;2022-07-21T03:18:39;99901.56;;;20.06;84.11
63556;BME280;49700;48.072;7.800;2022-07-21T03:21:05;99905.66;;;20.00;84.26
63556;BME280;49700;48.072;7.800;2022-07-21T03:23:33;99907.50;;;20.00;84.41
63556;BME280;49700;48.072;7.800;2022-07-21T03:26:09;99905.97;;;19.97;84.61
63556;BME280;49700;48.072;7.800;2022-07-21T03:28:34;99913.13;;;19.97;84.43
63556;BME280;49700;48.072;7.800;2022-07-21T03:31:02;99909.94;;;19.93;84.63
63556;BME280;49700;48.072;7.800;2022-07-21T03:33:27;99919.75;;;19.93;85.22
63556;BME280;49700;48.072;7.800;2022-07-21T03:35:55;99922.72;;;19.89;nan
63556;BME280;49700;48.072;7.800;2022-07-21T03:38:26;99913.19;;;19.87;85.47
63556;BME280;49700;48.072;7.800;2022-07-21T03:40:54;99916.84;;;19.86;85.08
63556;BME280;49700;48.072;7.800;2022-07-21T03:43:19;99915.84;;;19.87;85.09
63556;BME280;49700;48.072;7.800;2022-07-21T03:45:45;99918.13;;;19.82;85.22
63556;BME280;49700;48.072;7.800;2022-07-21T03:48:11;99916.75;;;19.78;85.28
63556;BME280;49700;48.072;7.800;2022-07-21T03:50:39;99915.53;;;19.72;85.45
63556;BME280;49700;48.072;7.800;2022-07-21T03:53:06;99919.03;;;19.63;85.95
63556;BME280;49700;48.072;7.800;2022-07-21T03:55:39;99913.47;;;19.56;86.06
63556;BME280;49700;48.072;7.800;2022-07-21T03:58:08;99912.09;;;19.52;86.40
63556;BME280;49700;48.072;7.800;2022-07-21T04:00:39;99921.25;;;19.50;86.48
63556;BME280;49700;48.072;7.800;2022-07-21T04:03:06;99918.56;;;19.50;86.77
63556;BME280;49700;48.072;7.800;2022-07-21T04:05:32;99914.75;;;19.52;86.56
63556;BME280;49700;48.072;7.800;2022-07-21T04:08:01;99923.44;;;19.54;86.55
63556;BME280;49700;48.072;7.800;2022-07-21T04:10:31;99924.97;;;19.57;86.26
63556;BME280;49700;48.072;7.800;2022-07-21T04:13:01;99928.16;;;19.60;86.23
63556;BME280;49700;48.072;7.800;2022-07-21T04:15:29;99922.41;;;19.65;86.07
63556;BME280;49700;48.072;7.800;2022-07-21T04:17:55;99919.34;;;19.70;85.92
63556;BME280;49700;48.072;7.800;2022-07-21T04:20:21;99919.63;;;19.66;85.65
63556;BME280;49700;48.072;7.800;2022-07-21T04:22:47;99917.25;;;19.63;85.84
63556;BME280;49700;48.072;7.800;2022-07-21T04:25:14;99910.69;;;19.58;86.11
63556;BME280;49700;48.072;7.800;2022-07-21T04:27:40;99917.41;;;19.52;86.67
63556;BME280;49700;48.072;7.800;2022-07-21T04:30:16;99926.94;;;19.55;86.80
63556;BME280;49700;48.072;7.800;2022-07-21T04:32:44;99925.50;;;19.60;86.70
63556;BME280;49700;48.072;7.800;2022-07-21T04:35:11;99926.81;;;19.66;86.13
63556;BME280;49700;48.072;7.800;2022-07-21T04:37:37;99923.00;;;19.69;86.12
63556;BME280;49700;48.072;7.800;2022-07-21T04:40:04;99918.03;;;19.74;85.89
63556;BME280;49700;48.072;7.800;2022-07-21T04:42:30;99924.84;;;19.86;85.67
63556;BME280;49700;48.072;7.800;2022-07-21T04:45:08;99927.91;;;19.91;85.00
63556;BME280;49700;48.072;7.800;2022-07-21T04:47:43;99929.28;;;19.95;84.92
63556;BME280;49700;48.072;7.800;2022-07-21T04:50:30;99928.31;;;19.96;84.74
63556;BME280;49700;48.072;7.800;2022-07-21T04:52:57;99919.03;;;20.18;84.02
63556;BME280;49700;48.072;7.800;2022-07-21T04:55:28;99923.81;;;20.50;82.40
63556;BME280;49700;48.072;7.800;2022-07-21T04:58:01;99929.56;;;20.99;80.91
63556;BME280;49700;48.072;7.800;2022-07-21T05:00:27;99932.34;;;21.93;77.10
63556;BME280;49700;48.072;7.800;2022-07-21T05:02:54;99933.66;;;22.72;73.83
63556;BME280;49700;48.072;7.800;2022-07-21T05:05:20;99931.78;;;23.05;72.65
63556;BME280;49700;48.072;7.800;2022-07-21T05:07:48;99924.50;;;23.86;69.89
63556;BME280;49700;48.072;7.800;2022-07-21T05:10:21;99921.69;;;24.80;66.73
63556;BME280;49700;48.072;7.800;2022-07-21T05:12:47;99918.38;;;25.52;63.70
63556;BME280;49700;48.072;7.800;2022-07-21T05:15:15;99927.28;;;26.18;62.22
63556;BME280;49700;48.072;7.800;2022-07-21T05:17:43;99921.06;;;26.82;59.80
63556;BME280;49700;48.072;7.800;2022-07-21T05:20:09;99920.19;;;27.38;57.79
63556;BME280;49700;48.072;7.800;2022-07-21T05:22:40;99915.78;;;27.72;56.58
63556;BME280;49700;48.072;7.800;2022-07-21T05:25:07;99914.22;;;27.97;55.90
63556;BME280;49700;48.072;7.800;2022-07-21T05:27:35;99920.53;;;28.18;54.72
63556;BME280;49700;48.072;7.800;2022-07-21T05:30:10;99915.13;;;28.38;53.91
63556;BME280;49700;48.072;7.800;2022-07-21T05:32:38;99912.28;;;28.59;52.66
63556;BME280;49700;48.072;7.800;2022-07-21T05:35:16;99913.31;;;28.92;51.72
63556;BME280;49700;48.072;7.800;2022-07-21T05:37:42;99914.34;;;29.17;51.21
63556;BME280;49700;48.072;7.800;2022-07-21T05:40:08;99924.28;;;29.37;50.00
63556;BME280;49700;48.072;7.800;2022-07-21T05:42:37;99922.78;;;29.41;49.91
63556;BME280;49700;48.072;7.800;2022-07-21T05:45:03;99925.28;;;29.49;49.78
63556;BME280;49700;48.072;7.800;2022-07-21T05:47:32;99922.50;;;29.75;48.87
63556;BME280;49700;48.072;7.800;2022-07-21T05:49:58;99930.91;;;29.99;47.95
63556;BME280;49700;48.072;7.800;2022-07-21T05:52:24;99924.44;;;30.07;47.77
63556;BME280;49700;48.072;7.800;2022-07-21T05:54:52;99930.16;;;30.30;46.79
63556;BME280;49700;48.072;7.800;2022-07-21T05:57:23;99924.19;;;30.47;45.87
63556;BME280;49700;48.072;7.800;2022-07-21T05:59:52;99933.31;;;30.77;45.08
63556;BME280;49700;48.072;7.800;2022-07-21T06:02:23;99931.00;;;31.24;44.35
63556;BME280;49700;48.072;7.800;2022-07-21T06:04:48;99924.47;;;31.87;42.97
63556;BME280;49700;48.072;7.800;2022-07-21T06:07:22;99926.66;;;32.39;41.78
63556;BME280;49700;48.072;7.800;2022-07-21T06:09:48;99931.94;;;32.64;41.22
63556;BME280;49700;48.072;7.800;2022-07-21T06:12:14;99930.06;;;32.88;40.67
63556;BME280;49700;48.072;7.800;2022-07-21T06:14:45;99926.66;;;33.16;40.06
63556;BME280;49700;48.072;7.800;2022-07-21T06:17:11;99931.94;;;33.35;39.48
63556;BME280;49700;48.072;7.800;2022-07-21T06:20:02;99930.97;;;33.64;38.41
63556;BME280;49700;48.072;7.800;2022-07-21T06:22:35;99930.69;;;33.78;37.97
63556;BME280;49700;48.072;7.800;2022-07-21T06:25:11;99941.38;;;33.67;38.00
63556;BME280;49700;48.072;7.800;2022-07-21T06:27:39;99934.56;;;33.53;38.49
63556;BME280;49700;48.072;7.800;2022-07-21T06:30:10;99930.03;;;33.59;38.22
63556;BME280;49700;48.072;7.800;2022-07-21T06:32:46;99944.34;;;33.66;38.03
63556;BME280;49700;48.072;7.800;2022-07-21T06:35:14;99943.19;;;33.50;38.30
63556;BME280;49700;48.072;7.800;2022-07-21T06:37:45;99941.69;;;33.07;38.87
63556;BME280;49700;48.072;7.800;2022-07-21T06:40:12;99943.59;;;33.07;39.01
63556;BME280;49700;48.072;7.800;2022-07-21T06:42:43;99940.75;;;33.25;38.68
63556;BME280;49700;48.072;7.800;2022-07-21T06:45:13;99934.19;;;33.38;38.13
63556;BME280;49700;48.072;7.800;2022-07-21T06:47:43;99933.94;;;33.51;37.60
63556;BME280;49700;48.072;7.800;2022-07-21T06:50:14;99934.66;;;33.58;37.32
63556;BME280;49700;48.072;7.800;2022-07-21T06:53:01;99932.25;;;33.74;37.17
63556;BME280;49700;48.072;7.800;2022-07-21T06:55:34;99931.66;;;34.12;36.46
63556;BME280;49700;48.072;7.800;2022-07-21T06:58:10;99928.34;;;34.27;36.33
63556;BME280;49700;48.072;7.800;2022-07-21T07:00:39;99932.50;;;34.29;36.28
63556;BME280;49700;48.072;7.800;2022-07-21T07:03:07;99933.41;;;34.35;36.12
63556;BME280;49700;48.072;7.800;2022-07-21T07:05:34;99932.25;;;34.31;36.29
63556;BME280;49700;48.072;7.800;2022-07-21T07:08:09;99936.69;;;34.20;36.47
63556;BME280;49700;48.072;7.800;2022-07-21T07:10:35;99942.03;;;34.44;36.05
63556;BME280;49700;48.072;7.800;2022-07-21T07:13:06;99942.94;;;34.49;35.50
63556;BME280;49700;48.072;7.800;2022-07-21T07:15:32;99944.22;;;34.58;35.49
63556;BME280;49700;48.072;7.800;2022-07-21T07:18:07;99938.75;;;34.58;34.90
63556;BME280;49700;48.072;7.800;2022-07-21T07:20:35;99947.19;;;34.74;34.80
63556;BME280;49700;48.072;7.800;2022-07-21T07:23:03;99945.13;;;34.64;34.13
63556;BME280;49700;48.072;7.800;2022-07-21T07:25:31;99952.13;;;34.43;34.63
63556;BME280;49700;48.072;7.800;2022-07-21T07:28:07;99955.38;;;34.57;33.93
63556;BME280;49700;48.072;7.800;2022-07-21T07:30:34;99955.97;;;34.76;33.79
63556;BME280;49700;48.072;7.800;2022-07-21T07:33:02;99956.59;;;34.83;33.76
63556;BME280;49700;48.072;7.800;2022-07-21T07:35:28;99959.63;;;33.67;35.24
63556;BME280;49700;48.072;7.800;2022-07-21T07:37:56;99964.97;;;33.26;36.47
63556;BME280;49700;48.072;7.800;2022-07-21T07:40:22;99958.09;;;34.00;35.09
63556;BME280;49700;48.072;7.800;2022-07-21T07:42:48;99957.41;;;34.33;34.00
63556;BME280;49700;48.072;7.800;2022-07-21T07:45:14;99954.66;;;34.78;33.40
63556;BME280;49700;48.072;7.800;2022-07-21T07:47:55;99958.56;;;35.05;32.80
63556;BME280;49700;48.072;7.800;2022-07-21T07:50:22;99950.88;;;35.35;31.94
63556;BME280;49700;48.072;7.800;2022-07-21T07:52:55;99958.91;;;35.25;31.65
63556;BME280;49700;48.072;7.800;2022-07-21T07:55:23;99957.63;;;34.03;33.89
63556;BME280;49700;48.072;7.800;2022-07-21T07:57:52;99956.78;;;32.37;37.34
63556;BME280;49700;48.072;7.800;2022-07-21T08:00:22;99964.44;;;31.00;39.88
63556;BME280;49700;48.072;7.800;2022-07-21T08:02:58;99964.69;;;29.96;41.71
63556;BME280;49700;48.072;7.800;2022-07-21T08:05:26;99966.38;;;29.13;43.80
63556;BME280;49700;48.072;7.800;2022-07-21T08:07:51;99965.75;;;29.04;43.65
63556;BME280;49700;48.072;7.800;2022-07-21T08:10:17;99970.88;;;28.45;45.02
63556;BME280;49700;48.072;7.800;2022-07-21T08:12:43;99961.31;;;29.49;42.44
63556;BME280;49700;48.072;7.800;2022-07-21T08:15:08;99958.19;;;30.99;38.32
63556;BME280;49700;48.072;7.800;2022-07-21T08:17:34;99948.63;;;31.77;36.36
63556;BME280;49700;48.072;7.800;2022-07-21T08:20:00;99947.22;;;32.35;34.47
63556;BME280;49700;48.072;7.800;2022-07-21T08:22:42;99944.13;;;32.97;33.14
63556;BME280;49700;48.072;7.800;2022-07-21T08:25:20;99944.59;;;33.53;32.52
63556;BME280;49700;48.072;7.800;2022-07-21T08:27:45;99949.34;;;33.45;32.83
63556;BME280;49700;48.072;7.800;2022-07-21T08:30:13;99940.44;;;33.74;32.71
63556;BME280;49700;48.072;7.800;2022-07-21T08:32:41;99942.88;;;33.87;32.59
63556;BME280;49700;48.072;7.800;2022-07-21T08:35:07;99948.16;;;32.94;34.38
63556;BME280;49700;48.072;7.800;2022-07-21T08:37:37;99953.88;;;31.90;35.89
63556;BME280;49700;48.072;7.800;2022-07-21T08:40:04;99950.75;;;31.13;37.03
63556;BME280;49700;48.072;7.800;2022-07-21T08:42:30;99962.00;;;30.67;37.95
63556;BME280;49700;48.072;7.800;2022-07-21T08:44:59;99964.19;;;30.51;37.39
63556;BME280;49700;48.072;7.800;2022-07-21T08:47:30;99957.09;;;30.50;37.07
63556;BME280;49700;48.072;7.800;2022-07-21T08:50:00;99954.59;;;30.49;37.40
63556;BME280;49700;48.072;7.800;2022-07-21T08:52:28;99957.38;;;30.42;37.75
63556;BME280;49700;48.072;7.800;2022-07-21T08:54:56;99956.53;;;30.03;38.96
63556;BME280;49700;48.072;7.800;2022-07-21T08:57:21;99965.56;;;29.90;39.16
63556;BME280;49700;48.072;7.800;2022-07-21T08:59:47;99954.34;;;29.87;39.22
63556;BME280;49700;48.072;7.800;2022-07-21T09:02:30;99966.44;;;29.77;38.46
63556;BME280;49700;48.072;7.800;2022-07-21T09:04:56;99961.59;;;29.93;38.28
63556;BME280;49700;48.072;7.800;2022-07-21T09:07:57;99967.97;;;30.05;37.85
63556;BME280;49700;48.072;7.800;2022-07-21T09:10:26;99961.66;;;30.25;37.16
63556;BME280;49700;48.072;7.800;2022-07-21T09:13:02;99966.66;;;30.28;36.85
63556;BME280;49700;48.072;7.800;2022-07-21T09:15:29;99964.72;;;30.35;36.36
63556;BME280;49700;48.072;7.800;2022-07-21T09:18:10;99962.50;;;30.25;36.53
63556;BME280;49700;48.072;7.800;2022-07-21T09:20:46;99963.44;;;29.99;37.42
63556;BME280;49700;48.072;7.800;2022-07-21T09:23:20;99957.50;;;30.15;37.79
63556;BME280;49700;48.072;7.800;2022-07-21T09:25:55;99960.63;;;30.51;37.04
63556;BME280;49700;48.072;7.800;2022-07-21T09:28:26;99959.88;;;30.43;36.65
63556;BME280;49700;48.072;7.800;2022-07-21T09:31:08;99969.22;;;30.73;36.47
63556;BME280;49700;48.072;7.800;2022-07-21T09:33:43;99958.97;;;31.06;36.17
63556;BME280;49700;48.072;7.800;2022-07-21T09:36:11;99956.88;;;31.27;35.86
63556;BME280;49700;48.072;7.800;2022-07-21T09:38:51;99951.78;;;31.56;35.13
63556;BME280;49700;48.072;7.800;2022-07-21T09:41:19;99954.81;;;31.66;35.38
63556;BME280;49700;48.072;7.800;2022-07-21T09:43:57;99952.81;;;31.36;35.25
63556;BME280;49700;48.072;7.800;2022-07-21T09:46:27;99950.00;;;31.06;35.18
63556;BME280;49700;48.072;7.800;2022-07-21T09:48:59;99943.31;;;31.08;35.62
63556;BME280;49700;48.072;7.800;2022-07-21T09:51:30;99947.91;;;30.83;35.39
63556;BME280;49700;48.072;7.800;2022-07-21T09:53:57;99955.56;;;30.61;35.27
63556;BME280;49700;48.072;7.800;2022-07-21T09:56:25;99946.16;;;30.63;34.89
63556;BME280;49700;48.072;7.800;2022-07-21T09:58:55;99941.38;;;30.34;34.96
63556;BME280;49700;48.072;7.800;2022-07-21T10:01:25;99939.88;;;30.38;35.22
63556;BME280;49700;48.072;7.800;2022-07-21T10:03:54;99942.28;;;30.84;35.05
63556;BME280;49700;48.072;7.800;2022-07-21T10:06:26;99937.66;;;31.28;34.26
63556;BME280;49700;48.072;7.800;2022-07-21T10:08:55;99943.50;;;31.69;33.72
63556;BME280;49700;48.072;7.800;2022-07-21T10:11:23;99932.16;;;31.72;33.22
63556;BME280;49700;48.072;7.800;2022-07-21T10:13:49;99937.09;;;31.63;33.34
63556;BME280;49700;48.072;7.800;2022-07-21T10:16:15;99927.81;;;31.71;33.13
63556;BME280;49700;48.072;7.800;2022-07-21T10:19:05;99932.50;;;31.45;33.28
63556;BME280;49700;48.072;7.800;2022-07-21T10:21:43;99941.31;;;30.97;34.37
63556;BME280;49700;48.072;7.800;2022-07-21T10:24:12;99932.78;;;30.69;35.00
63556;BME280;49700;48.072;7.800;2022-07-21T10:26:39;99928.19;;;30.69;35.01
63556;BME280;49700;48.072;7.800;2022-07-21T10:29:57;99931.44;;;30.84;34.96
63556;BME280;49700;48.072;7.800;2022-07-21T10:32:33;99923.25;;;31.28;34.43
63556;BME280;49700;48.072;7.800;2022-07-21T10:35:24;99919.63;;;31.41;34.33
63556;BME280;49700;48.072;7.800;2022-07-21T10:37:51;99920.84;;;31.75;32.73
63556;BME280;49700;48.072;7.800;2022-07-21T10:45:30;99912.31;;;32.20;31.57
63556;BME280;49700;48.072;7.800;2022-07-21T10:47:57;99911.50;;;32.20;31.58
63556;BME280;49700;48.072;7.800;2022-07-21T10:50:33;99915.81;;;31.79;31.93
63556;BME280;49700;48.072;7.800;2022-07-21T10:53:04;99922.03;;;31.24;32.71
63556;BME280;49700;48.072;7.800;2022-07-21T10:55:34;99916.03;;;31.22;32.74
63556;BME280;49700;48.072;7.800;2022-07-21T11:01:01;99913.31;;;31.40;32.39
63556;BME280;49700;48.072;7.800;2022-07-21T11:03:34;99900.00;;;31.39;32.80
63556;BME280;49700;48.072;7.800;2022-07-21T11:08:32;99904.88;;;31.67;33.09
63556;BME280;49700;48.072;7.800;2022-07-21T11:11:15;99900.66;;;31.52;32.44
63556;BME280;49700;48.072;7.800;2022-07-21T11:19:29;99906.19;;;30.84;34.01
63556;BME280;49700;48.072;7.800;2022-07-21T11:21:58;99904.38;;;30.71;33.52
63556;BME280;49700;48.072;7.800;2022-07-21T11:24:25;99899.06;;;30.33;34.44
63556;BME280;49700;48.072;7.800;2022-07-21T11:26:59;99890.28;;;29.99;34.51
63556;BME280;49700;48.072;7.800;2022-07-21T11:29:29;99884.59;;;30.14;34.32
63556;BME280;49700;48.072;7.800;2022-07-21T11:31:56;99882.53;;;30.09;34.66
63556;BME280;49700;48.072;7.800;2022-07-21T11:37:25;99882.69;;;30.14;34.88
63556;BME280;49700;48.072;7.800;2022-07-21T11:39:54;99881.88;;;30.14;35.23
63556;BME280;49700;48.072;7.800;2022-07-21T11:42:19;99881.53;;;30.04;35.42
63556;BME280;49700;48.072;7.800;2022-07-21T11:44:48;99870.19;;;30.13;35.29
63556;BME280;49700;48.072;7.800;2022-07-21T11:47:19;99874.34;;;30.23;34.70
63556;BME280;49700;48.072;7.800;2022-07-21T11:49:57;99868.28;;;30.20;35.03
63556;BME280;49700;48.072;7.800;2022-07-21T11:52:28;99857.88;;;30.17;34.52
63556;BME280;49700;48.072;7.800;2022-07-21T11:54:55;99858.56;;;30.38;34.43
63556;BME280;49700;48.072;7.800;2022-07-21T11:57:22;99860.25;;;30.39;34.34
63556;BME280;49700;48.072;7.800;2022-07-21T11:59:54;99858.06;;;30.48;34.56
63556;BME280;49700;48.072;7.800;2022-07-21T12:02:22;99858.97;;;30.41;34.69
63556;BME280;49700;48.072;7.800;2022-07-21T12:04:56;99851.66;;;30.42;34.53
63556;BME280;49700;48.072;7.800;2022-07-21T12:07:29;99858.94;;;30.16;34.90
63556;BME280;49700;48.072;7.800;2022-07-21T12:09:57;99850.19;;;29.83;35.00
63556;BME280;49700;48.072;7.800;2022-07-21T12:12:34;99852.09;;;29.75;35.57
63556;BME280;49700;48.072;7.800;2022-07-21T12:15:16;99850.81;;;29.85;34.99
63556;BME280;49700;48.072;7.800;2022-07-21T12:17:48;99855.97;;;29.86;35.15
63556;BME280;49700;48.072;7.800;2022-07-21T12:20:16;99843.31;;;29.87;34.64
63556;BME280;49700;48.072;7.800;2022-07-21T12:22:51;99849.66;;;29.61;35.00
63556;BME280;49700;48.072;7.800;2022-07-21T12:25:29;99842.84;;;29.45;35.55
63556;BME280;49700;48.072;7.800;2022-07-21T12:27:55;99835.94;;;29.55;35.69
63556;BME280;49700;48.072;7.800;2022-07-21T12:30:44;99836.09;;;29.67;34.82
63556;BME280;49700;48.072;7.800;2022-07-21T12:33:18;99834.50;;;29.91;35.19
63556;BME280;49700;48.072;7.800;2022-07-21T12:35:58;99827.91;;;30.12;34.97
63556;BME280;49700;48.072;7.800;2022-07-21T12:38:42;99833.31;;;30.44;34.45
63556;BME280;49700;48.072;7.800;2022-07-21T12:41:14;99829.19;;;30.60;33.68
63556;BME280;49700;48.072;7.800;2022-07-21T12:43:41;99826.38;;;30.48;33.45
63556;BME280;49700;48.072;7.800;2022-07-21T12:46:15;99822.47;;;30.44;33.51
63556;BME280;49700;48.072;7.800;2022-07-21T12:48:44;99821.22;;;30.40;33.47
63556;BME280;49700;48.072;7.800;2022-07-21T12:53:46;99816.03;;;30.63;33.05
63556;BME280;49700;48.072;7.800;2022-07-21T12:56:16;99815.53;;;30.48;33.45
63556;BME280;49700;48.072;7.800;2022-07-21T12:58:45;99818.16;;;30.36;33.39
63556;BME280;49700;48.072;7.800;2022-07-21T13:01:21;99815.47;;;30.30;33.00
63556;BME280;49700;48.072;7.800;2022-07-21T13:04:02;99816.25;;;30.37;32.78
63556;BME280;49700;48.072;7.800;2022-07-21T13:06:31;99816.97;;;30.51;33.21
63556;BME280;49700;48.072;7.800;2022-07-21T13:08:57;99822.63;;;30.49;33.92
63556;BME280;49700;48.072;7.800;2022-07-21T13:11:22;99817.19;;;30.24;34.73
63556;BME280;49700;48.072;7.800;2022-07-21T13:13:58;99819.31;;;30.15;34.69
63556;BME280;49700;48.072;7.800;2022-07-21T13:16:27;99816.34;;;30.30;34.45
63556;BME280;49700;48.072;7.800;2022-07-21T13:18:53;99817.53;;;30.34;34.45
63556;BME280;49700;48.072;7.800;2022-07-21T13:21:21;99816.59;;;30.47;34.38
63556;BME280;49700;48.072;7.800;2022-07-21T13:24:07;99814.38;;;30.62;33.29
63556;BME280;49700;48.072;7.800;2022-07-21T13:26:38;99818.06;;;30.43;33.63
63556;BME280;49700;48.072;7.800;2022-07-21T13:29:11;99817.69;;;30.39;34.12
63556;BME280;49700;48.072;7.800;2022-07-21T13:31:41;99808.25;;;30.24;34.09
63556;BME280;49700;48.072;7.800;2022-07-21T13:34:07;99815.06;;;30.01;34.38
63556;BME280;49700;48.072;7.800;2022-07-21T13:36:48;99807.75;;;30.02;34.83